ES-0186 weather

Aeródromo de Almorox
Almorox, Castilla-La Mancha, Spain

Public forecast

Using degrees Celsius for public forecast. Weather courtesy of forecast.io.

Closest aviation weather report (METAR) to Aeródromo de Almorox

Report is more than 2 hours old.

Closest report is Getafe Air Base, 30.8 nm (57.0 km) E. Retrieved 2019/10/14 19:00 UTC (5 hours ago):

LEGT 141900Z 25012KT 220V280 9999 FEW008 SCT015 12/10 Q1016

Closest aviation forecast (TAF) to Aeródromo de Almorox

Forecast is more than 12 hours old.

Closest forecast is Getafe Air Base, 30.8 nm (57.0 km) E. Retrieved 2018/03/28 12:33 UTC (2 years ago):

TAF LEGT 281100Z 2812/2824 24010KT CAVOK PROB40 TEMPO 2814/2818 27015G25KT TEMPO 2820/2824 28008KT